sensor_id;sensor_type;location;lat;lon;timestamp;P1;durP1;ratioP1;P2;durP2;ratioP2
61709;SDS011;47633;51.494;5.386;2023-03-21T00:01:10;4.78;;;2.28;;
61709;SDS011;47633;51.494;5.386;2023-03-21T00:03:36;5.47;;;2.22;;
61709;SDS011;47633;51.494;5.386;2023-03-21T00:06:05;4.45;;;2.13;;
61709;SDS011;47633;51.494;5.386;2023-03-21T00:08:32;5.55;;;2.42;;
61709;SDS011;47633;51.494;5.386;2023-03-21T00:10:59;4.97;;;2.20;;
61709;SDS011;47633;51.494;5.386;2023-03-21T00:13:27;5.63;;;2.22;;
61709;SDS011;47633;51.494;5.386;2023-03-21T00:15:56;6.43;;;2.53;;
61709;SDS011;47633;51.494;5.386;2023-03-21T00:18:22;4.82;;;2.08;;
61709;SDS011;47633;51.494;5.386;2023-03-21T00:20:56;5.88;;;2.05;;
61709;SDS011;47633;51.494;5.386;2023-03-21T00:23:23;6.45;;;2.30;;
61709;SDS011;47633;51.494;5.386;2023-03-21T00:25:51;5.35;;;2.20;;
61709;SDS011;47633;51.494;5.386;2023-03-21T00:28:17;4.93;;;2.50;;
61709;SDS011;47633;51.494;5.386;2023-03-21T00:30:43;5.63;;;2.20;;
61709;SDS011;47633;51.494;5.386;2023-03-21T00:33:08;4.63;;;2.10;;
61709;SDS011;47633;51.494;5.386;2023-03-21T00:35:33;5.00;;;2.30;;
61709;SDS011;47633;51.494;5.386;2023-03-21T00:37:59;5.72;;;2.22;;
61709;SDS011;47633;51.494;5.386;2023-03-21T00:40:24;5.50;;;2.40;;
61709;SDS011;47633;51.494;5.386;2023-03-21T00:42:50;5.35;;;2.38;;
61709;SDS011;47633;51.494;5.386;2023-03-21T00:45:15;5.70;;;2.10;;
61709;SDS011;47633;51.494;5.386;2023-03-21T00:47:43;5.45;;;2.17;;
61709;SDS011;47633;51.494;5.386;2023-03-21T00:50:08;5.25;;;2.70;;
61709;SDS011;47633;51.494;5.386;2023-03-21T00:52:35;6.50;;;2.42;;
61709;SDS011;47633;51.494;5.386;2023-03-21T00:55:01;5.35;;;2.25;;
61709;SDS011;47633;51.494;5.386;2023-03-21T00:57:27;4.68;;;1.92;;
61709;SDS011;47633;51.494;5.386;2023-03-21T00:59:52;4.53;;;1.90;;
61709;SDS011;47633;51.494;5.386;2023-03-21T01:02:17;5.72;;;2.40;;
61709;SDS011;47633;51.494;5.386;2023-03-21T01:04:47;5.30;;;2.20;;
61709;SDS011;47633;51.494;5.386;2023-03-21T01:07:13;6.47;;;2.38;;
61709;SDS011;47633;51.494;5.386;2023-03-21T01:09:38;7.07;;;2.13;;
61709;SDS011;47633;51.494;5.386;2023-03-21T01:12:03;5.57;;;2.17;;
61709;SDS011;47633;51.494;5.386;2023-03-21T01:14:29;5.88;;;2.10;;
61709;SDS011;47633;51.494;5.386;2023-03-21T01:16:55;4.63;;;1.85;;
61709;SDS011;47633;51.494;5.386;2023-03-21T01:19:21;4.43;;;2.17;;
61709;SDS011;47633;51.494;5.386;2023-03-21T01:21:50;4.97;;;2.20;;
61709;SDS011;47633;51.494;5.386;2023-03-21T01:24:15;5.25;;;2.13;;
61709;SDS011;47633;51.494;5.386;2023-03-21T01:26:41;4.97;;;2.10;;
61709;SDS011;47633;51.494;5.386;2023-03-21T01:29:06;4.97;;;2.20;;
61709;SDS011;47633;51.494;5.386;2023-03-21T01:31:31;4.03;;;1.90;;
61709;SDS011;47633;51.494;5.386;2023-03-21T01:33:57;6.03;;;2.25;;
61709;SDS011;47633;51.494;5.386;2023-03-21T01:36:23;4.28;;;2.20;;
61709;SDS011;47633;51.494;5.386;2023-03-21T01:38:51;5.95;;;2.45;;
61709;SDS011;47633;51.494;5.386;2023-03-21T01:41:23;6.93;;;2.25;;
61709;SDS011;47633;51.494;5.386;2023-03-21T01:43:50;4.93;;;2.13;;
61709;SDS011;47633;51.494;5.386;2023-03-21T01:51:45;4.97;;;2.05;;
61709;SDS011;47633;51.494;5.386;2023-03-21T01:54:25;5.30;;;2.00;;
61709;SDS011;47633;51.494;5.386;2023-03-21T01:56:56;6.25;;;2.05;;
61709;SDS011;47633;51.494;5.386;2023-03-21T01:59:24;6.80;;;2.10;;
61709;SDS011;47633;51.494;5.386;2023-03-21T02:01:53;4.13;;;1.98;;
61709;SDS011;47633;51.494;5.386;2023-03-21T02:04:23;6.13;;;2.67;;
61709;SDS011;47633;51.494;5.386;2023-03-21T02:06:53;4.72;;;2.10;;
61709;SDS011;47633;51.494;5.386;2023-03-21T02:09:23;5.55;;;2.13;;
61709;SDS011;47633;51.494;5.386;2023-03-21T02:11:51;5.75;;;2.33;;
61709;SDS011;47633;51.494;5.386;2023-03-21T02:14:18;4.38;;;1.83;;
61709;SDS011;47633;51.494;5.386;2023-03-21T02:22:30;5.13;;;2.15;;
61709;SDS011;47633;51.494;5.386;2023-03-21T02:27:39;4.90;;;1.98;;
61709;SDS011;47633;51.494;5.386;2023-03-21T02:30:34;5.60;;;2.10;;
61709;SDS011;47633;51.494;5.386;2023-03-21T02:38:39;6.47;;;2.10;;
61709;SDS011;47633;51.494;5.386;2023-03-21T02:41:12;5.78;;;2.20;;
61709;SDS011;47633;51.494;5.386;2023-03-21T02:44:05;6.00;;;2.13;;
61709;SDS011;47633;51.494;5.386;2023-03-21T02:46:42;4.85;;;1.92;;
61709;SDS011;47633;51.494;5.386;2023-03-21T02:52:14;5.10;;;2.25;;
61709;SDS011;47633;51.494;5.386;2023-03-21T02:54:44;5.30;;;2.20;;
61709;SDS011;47633;51.494;5.386;2023-03-21T02:57:12;4.65;;;1.70;;
61709;SDS011;47633;51.494;5.386;2023-03-21T02:59:40;5.50;;;2.22;;
61709;SDS011;47633;51.494;5.386;2023-03-21T03:02:06;5.05;;;2.20;;
61709;SDS011;47633;51.494;5.386;2023-03-21T03:04:32;7.30;;;2.50;;
61709;SDS011;47633;51.494;5.386;2023-03-21T03:12:16;6.25;;;2.10;;
61709;SDS011;47633;51.494;5.386;2023-03-21T03:17:52;5.63;;;2.33;;
61709;SDS011;47633;51.494;5.386;2023-03-21T03:28:37;5.15;;;2.10;;
61709;SDS011;47633;51.494;5.386;2023-03-21T03:31:06;4.57;;;2.10;;
61709;SDS011;47633;51.494;5.386;2023-03-21T03:33:37;6.57;;;2.53;;
61709;SDS011;47633;51.494;5.386;2023-03-21T03:36:08;7.05;;;2.92;;
61709;SDS011;47633;51.494;5.386;2023-03-21T03:38:35;6.43;;;2.35;;
61709;SDS011;47633;51.494;5.386;2023-03-21T03:41:13;7.50;;;2.35;;
61709;SDS011;47633;51.494;5.386;2023-03-21T03:43:48;5.38;;;2.38;;
61709;SDS011;47633;51.494;5.386;2023-03-21T03:46:20;5.78;;;2.38;;
61709;SDS011;47633;51.494;5.386;2023-03-21T03:48:54;6.90;;;2.30;;
61709;SDS011;47633;51.494;5.386;2023-03-21T03:51:25;4.68;;;2.03;;
61709;SDS011;47633;51.494;5.386;2023-03-21T03:53:56;5.22;;;2.03;;
61709;SDS011;47633;51.494;5.386;2023-03-21T03:56:25;5.82;;;2.20;;
61709;SDS011;47633;51.494;5.386;2023-03-21T03:58:52;4.45;;;2.08;;
61709;SDS011;47633;51.494;5.386;2023-03-21T04:01:17;5.72;;;2.30;;
61709;SDS011;47633;51.494;5.386;2023-03-21T04:03:44;6.40;;;2.00;;
61709;SDS011;47633;51.494;5.386;2023-03-21T04:06:12;5.07;;;1.90;;
61709;SDS011;47633;51.494;5.386;2023-03-21T04:08:38;5.53;;;2.00;;
61709;SDS011;47633;51.494;5.386;2023-03-21T04:11:03;4.97;;;1.90;;
61709;SDS011;47633;51.494;5.386;2023-03-21T04:13:29;6.65;;;2.38;;
61709;SDS011;47633;51.494;5.386;2023-03-21T04:15:55;4.97;;;2.15;;
61709;SDS011;47633;51.494;5.386;2023-03-21T04:18:20;4.72;;;2.08;;
61709;SDS011;47633;51.494;5.386;2023-03-21T04:20:47;4.65;;;2.20;;
61709;SDS011;47633;51.494;5.386;2023-03-21T04:23:15;4.05;;;2.10;;
61709;SDS011;47633;51.494;5.386;2023-03-21T04:25:41;4.80;;;2.17;;
61709;SDS011;47633;51.494;5.386;2023-03-21T04:28:06;5.03;;;2.55;;
61709;SDS011;47633;51.494;5.386;2023-03-21T04:30:32;5.97;;;2.53;;
61709;SDS011;47633;51.494;5.386;2023-03-21T04:32:58;6.90;;;2.38;;
61709;SDS011;47633;51.494;5.386;2023-03-21T04:35:25;5.25;;;2.33;;
61709;SDS011;47633;51.494;5.386;2023-03-21T04:37:51;6.25;;;2.00;;
61709;SDS011;47633;51.494;5.386;2023-03-21T04:40:16;5.13;;;2.13;;
61709;SDS011;47633;51.494;5.386;2023-03-21T04:42:43;5.93;;;2.20;;
61709;SDS011;47633;51.494;5.386;2023-03-21T04:45:09;5.57;;;2.30;;
61709;SDS011;47633;51.494;5.386;2023-03-21T04:47:34;5.70;;;2.10;;
61709;SDS011;47633;51.494;5.386;2023-03-21T04:50:00;6.03;;;2.63;;
61709;SDS011;47633;51.494;5.386;2023-03-21T04:52:25;4.85;;;2.10;;
61709;SDS011;47633;51.494;5.386;2023-03-21T04:54:51;4.55;;;2.05;;
61709;SDS011;47633;51.494;5.386;2023-03-21T04:57:16;5.78;;;2.17;;
61709;SDS011;47633;51.494;5.386;2023-03-21T04:59:42;6.28;;;2.50;;
61709;SDS011;47633;51.494;5.386;2023-03-21T05:02:07;5.93;;;2.30;;
61709;SDS011;47633;51.494;5.386;2023-03-21T05:04:32;5.10;;;2.33;;
61709;SDS011;47633;51.494;5.386;2023-03-21T05:06:57;5.20;;;2.25;;
61709;SDS011;47633;51.494;5.386;2023-03-21T05:09:23;4.43;;;2.20;;
61709;SDS011;47633;51.494;5.386;2023-03-21T05:11:49;5.30;;;2.38;;
61709;SDS011;47633;51.494;5.386;2023-03-21T05:14:16;5.57;;;2.20;;
61709;SDS011;47633;51.494;5.386;2023-03-21T05:16:44;6.40;;;2.75;;
61709;SDS011;47633;51.494;5.386;2023-03-21T05:19:13;5.05;;;2.38;;
61709;SDS011;47633;51.494;5.386;2023-03-21T05:21:39;4.95;;;2.10;;
61709;SDS011;47633;51.494;5.386;2023-03-21T05:24:08;5.60;;;2.40;;
61709;SDS011;47633;51.494;5.386;2023-03-21T05:26:38;5.35;;;2.97;;
61709;SDS011;47633;51.494;5.386;2023-03-21T05:29:04;5.68;;;2.20;;
61709;SDS011;47633;51.494;5.386;2023-03-21T05:31:30;6.05;;;2.30;;
61709;SDS011;47633;51.494;5.386;2023-03-21T05:33:55;5.50;;;2.22;;
61709;SDS011;47633;51.494;5.386;2023-03-21T05:36:20;5.80;;;2.38;;
61709;SDS011;47633;51.494;5.386;2023-03-21T05:38:46;4.43;;;2.15;;
61709;SDS011;47633;51.494;5.386;2023-03-21T05:41:12;6.93;;;2.28;;
61709;SDS011;47633;51.494;5.386;2023-03-21T05:43:38;7.35;;;2.20;;
61709;SDS011;47633;51.494;5.386;2023-03-21T05:46:03;5.32;;;2.30;;
61709;SDS011;47633;51.494;5.386;2023-03-21T05:48:29;5.68;;;2.30;;
61709;SDS011;47633;51.494;5.386;2023-03-21T05:50:54;4.97;;;2.20;;
61709;SDS011;47633;51.494;5.386;2023-03-21T05:53:20;5.82;;;2.03;;
61709;SDS011;47633;51.494;5.386;2023-03-21T05:55:45;5.40;;;2.20;;
61709;SDS011;47633;51.494;5.386;2023-03-21T05:58:11;5.13;;;2.00;;
61709;SDS011;47633;51.494;5.386;2023-03-21T06:00:36;4.80;;;2.13;;
61709;SDS011;47633;51.494;5.386;2023-03-21T06:03:01;7.93;;;2.28;;
61709;SDS011;47633;51.494;5.386;2023-03-21T06:05:27;7.30;;;2.60;;
61709;SDS011;47633;51.494;5.386;2023-03-21T06:07:52;5.47;;;2.33;;
61709;SDS011;47633;51.494;5.386;2023-03-21T06:10:17;5.68;;;2.05;;
61709;SDS011;47633;51.494;5.386;2023-03-21T06:12:43;6.90;;;2.35;;
61709;SDS011;47633;51.494;5.386;2023-03-21T06:15:08;7.38;;;2.00;;
61709;SDS011;47633;51.494;5.386;2023-03-21T06:17:34;4.78;;;2.10;;
61709;SDS011;47633;51.494;5.386;2023-03-21T06:19:59;5.93;;;2.30;;
61709;SDS011;47633;51.494;5.386;2023-03-21T06:22:25;5.05;;;1.75;;
61709;SDS011;47633;51.494;5.386;2023-03-21T06:24:51;5.05;;;1.77;;
61709;SDS011;47633;51.494;5.386;2023-03-21T06:27:16;4.20;;;1.55;;
61709;SDS011;47633;51.494;5.386;2023-03-21T06:29:42;5.22;;;2.00;;
61709;SDS011;47633;51.494;5.386;2023-03-21T06:32:07;4.07;;;1.70;;
61709;SDS011;47633;51.494;5.386;2023-03-21T06:34:32;4.22;;;1.85;;
61709;SDS011;47633;51.494;5.386;2023-03-21T06:36:58;5.32;;;1.60;;
61709;SDS011;47633;51.494;5.386;2023-03-21T06:39:23;5.15;;;1.70;;
61709;SDS011;47633;51.494;5.386;2023-03-21T06:41:48;4.70;;;1.63;;
61709;SDS011;47633;51.494;5.386;2023-03-21T06:44:14;5.13;;;1.70;;
61709;SDS011;47633;51.494;5.386;2023-03-21T06:46:39;5.40;;;1.70;;
61709;SDS011;47633;51.494;5.386;2023-03-21T06:49:05;3.35;;;1.50;;
61709;SDS011;47633;51.494;5.386;2023-03-21T06:51:30;5.65;;;2.10;;
61709;SDS011;47633;51.494;5.386;2023-03-21T06:53:55;4.10;;;1.65;;
61709;SDS011;47633;51.494;5.386;2023-03-21T06:56:21;4.05;;;1.60;;
61709;SDS011;47633;51.494;5.386;2023-03-21T06:58:46;3.42;;;1.50;;
61709;SDS011;47633;51.494;5.386;2023-03-21T07:01:11;3.15;;;1.40;;
61709;SDS011;47633;51.494;5.386;2023-03-21T07:03:38;4.45;;;1.75;;
61709;SDS011;47633;51.494;5.386;2023-03-21T07:06:05;4.85;;;1.60;;
61709;SDS011;47633;51.494;5.386;2023-03-21T07:08:35;3.58;;;1.50;;
61709;SDS011;47633;51.494;5.386;2023-03-21T07:11:01;4.97;;;1.58;;
61709;SDS011;47633;51.494;5.386;2023-03-21T07:13:26;3.90;;;1.60;;
61709;SDS011;47633;51.494;5.386;2023-03-21T07:15:52;3.70;;;1.52;;
61709;SDS011;47633;51.494;5.386;2023-03-21T07:18:18;4.30;;;1.40;;
61709;SDS011;47633;51.494;5.386;2023-03-21T07:20:45;3.72;;;1.50;;
61709;SDS011;47633;51.494;5.386;2023-03-21T07:23:15;4.50;;;1.70;;
61709;SDS011;47633;51.494;5.386;2023-03-21T07:25:46;4.32;;;1.50;;
61709;SDS011;47633;51.494;5.386;2023-03-21T07:28:12;3.15;;;1.25;;
61709;SDS011;47633;51.494;5.386;2023-03-21T07:30:37;3.75;;;1.50;;
61709;SDS011;47633;51.494;5.386;2023-03-21T07:33:03;3.50;;;1.48;;
61709;SDS011;47633;51.494;5.386;2023-03-21T07:35:28;4.70;;;1.58;;
61709;SDS011;47633;51.494;5.386;2023-03-21T07:37:53;4.93;;;1.85;;
61709;SDS011;47633;51.494;5.386;2023-03-21T07:40:18;4.80;;;1.80;;
61709;SDS011;47633;51.494;5.386;2023-03-21T07:42:44;4.22;;;1.65;;
61709;SDS011;47633;51.494;5.386;2023-03-21T07:45:10;5.63;;;1.88;;
61709;SDS011;47633;51.494;5.386;2023-03-21T07:47:36;4.78;;;1.77;;
61709;SDS011;47633;51.494;5.386;2023-03-21T07:50:02;4.40;;;1.50;;
61709;SDS011;47633;51.494;5.386;2023-03-21T07:52:28;7.53;;;2.20;;
61709;SDS011;47633;51.494;5.386;2023-03-21T07:54:54;3.97;;;1.80;;
61709;SDS011;47633;51.494;5.386;2023-03-21T07:57:19;4.78;;;1.73;;
61709;SDS011;47633;51.494;5.386;2023-03-21T07:59:45;6.05;;;2.25;;
61709;SDS011;47633;51.494;5.386;2023-03-21T08:02:13;3.75;;;1.52;;
61709;SDS011;47633;51.494;5.386;2023-03-21T08:04:40;4.55;;;1.70;;
61709;SDS011;47633;51.494;5.386;2023-03-21T08:07:05;5.85;;;1.67;;
61709;SDS011;47633;51.494;5.386;2023-03-21T08:09:30;5.28;;;2.20;;
61709;SDS011;47633;51.494;5.386;2023-03-21T08:11:56;5.22;;;2.30;;
61709;SDS011;47633;51.494;5.386;2023-03-21T08:14:21;7.65;;;2.80;;
61709;SDS011;47633;51.494;5.386;2023-03-21T08:16:47;9.43;;;2.67;;
61709;SDS011;47633;51.494;5.386;2023-03-21T08:19:12;6.63;;;2.40;;
61709;SDS011;47633;51.494;5.386;2023-03-21T08:21:38;5.35;;;2.55;;
61709;SDS011;47633;51.494;5.386;2023-03-21T08:24:03;8.25;;;2.40;;
61709;SDS011;47633;51.494;5.386;2023-03-21T08:26:29;7.30;;;2.30;;
61709;SDS011;47633;51.494;5.386;2023-03-21T08:28:56;7.72;;;2.50;;
61709;SDS011;47633;51.494;5.386;2023-03-21T08:31:21;7.32;;;2.30;;
61709;SDS011;47633;51.494;5.386;2023-03-21T08:33:47;6.85;;;2.55;;
61709;SDS011;47633;51.494;5.386;2023-03-21T08:36:17;6.20;;;2.30;;
61709;SDS011;47633;51.494;5.386;2023-03-21T08:38:42;6.90;;;2.28;;
61709;SDS011;47633;51.494;5.386;2023-03-21T08:41:10;6.10;;;2.50;;
61709;SDS011;47633;51.494;5.386;2023-03-21T08:43:35;7.38;;;2.42;;
61709;SDS011;47633;51.494;5.386;2023-03-21T08:46:01;5.03;;;2.30;;
61709;SDS011;47633;51.494;5.386;2023-03-21T08:48:28;9.43;;;2.10;;
61709;SDS011;47633;51.494;5.386;2023-03-21T08:50:53;7.05;;;2.40;;
61709;SDS011;47633;51.494;5.386;2023-03-21T08:53:18;7.80;;;2.25;;
61709;SDS011;47633;51.494;5.386;2023-03-21T08:55:44;6.47;;;2.35;;
61709;SDS011;47633;51.494;5.386;2023-03-21T08:58:09;7.32;;;2.38;;
61709;SDS011;47633;51.494;5.386;2023-03-21T09:00:35;6.82;;;2.28;;
61709;SDS011;47633;51.494;5.386;2023-03-21T09:03:00;7.78;;;2.50;;
61709;SDS011;47633;51.494;5.386;2023-03-21T09:05:25;6.72;;;2.28;;
61709;SDS011;47633;51.494;5.386;2023-03-21T09:07:52;8.98;;;2.13;;
61709;SDS011;47633;51.494;5.386;2023-03-21T09:10:21;8.00;;;2.40;;
61709;SDS011;47633;51.494;5.386;2023-03-21T09:12:48;8.13;;;2.08;;
61709;SDS011;47633;51.494;5.386;2023-03-21T09:15:15;6.65;;;1.80;;
61709;SDS011;47633;51.494;5.386;2023-03-21T09:17:42;8.32;;;2.00;;
61709;SDS011;47633;51.494;5.386;2023-03-21T09:20:09;5.57;;;2.00;;
61709;SDS011;47633;51.494;5.386;2023-03-21T09:22:41;7.17;;;2.10;;
61709;SDS011;47633;51.494;5.386;2023-03-21T09:25:07;5.50;;;2.00;;
61709;SDS011;47633;51.494;5.386;2023-03-21T09:27:35;6.93;;;2.10;;
61709;SDS011;47633;51.494;5.386;2023-03-21T09:30:00;7.05;;;2.28;;
61709;SDS011;47633;51.494;5.386;2023-03-21T09:32:26;4.60;;;1.73;;
61709;SDS011;47633;51.494;5.386;2023-03-21T09:34:52;6.75;;;2.30;;
61709;SDS011;47633;51.494;5.386;2023-03-21T09:37:19;5.68;;;1.92;;
61709;SDS011;47633;51.494;5.386;2023-03-21T09:39:45;5.45;;;1.80;;
61709;SDS011;47633;51.494;5.386;2023-03-21T09:42:23;7.00;;;2.20;;
61709;SDS011;47633;51.494;5.386;2023-03-21T09:45:03;5.70;;;1.98;;
61709;SDS011;47633;51.494;5.386;2023-03-21T09:47:47;4.72;;;1.80;;
61709;SDS011;47633;51.494;5.386;2023-03-21T09:50:21;7.32;;;1.80;;
61709;SDS011;47633;51.494;5.386;2023-03-21T09:55:48;4.60;;;1.90;;
61709;SDS011;47633;51.494;5.386;2023-03-21T09:58:27;5.47;;;1.75;;
61709;SDS011;47633;51.494;5.386;2023-03-21T10:04:01;8.35;;;2.22;;
61709;SDS011;47633;51.494;5.386;2023-03-21T10:06:29;4.30;;;2.00;;
61709;SDS011;47633;51.494;5.386;2023-03-21T10:09:17;7.03;;;1.98;;
61709;SDS011;47633;51.494;5.386;2023-03-21T10:12:06;5.40;;;2.10;;
61709;SDS011;47633;51.494;5.386;2023-03-21T10:14:45;7.18;;;1.90;;
61709;SDS011;47633;51.494;5.386;2023-03-21T10:20:15;6.45;;;1.83;;
61709;SDS011;47633;51.494;5.386;2023-03-21T10:22:49;4.32;;;1.77;;
61709;SDS011;47633;51.494;5.386;2023-03-21T10:25:18;5.25;;;1.92;;
61709;SDS011;47633;51.494;5.386;2023-03-21T10:27:55;4.93;;;1.73;;
61709;SDS011;47633;51.494;5.386;2023-03-21T10:30:25;5.05;;;2.00;;
61709;SDS011;47633;51.494;5.386;2023-03-21T10:32:57;5.32;;;1.90;;
61709;SDS011;47633;51.494;5.386;2023-03-21T10:35:26;4.90;;;1.63;;
61709;SDS011;47633;51.494;5.386;2023-03-21T10:37:51;5.25;;;1.80;;
61709;SDS011;47633;51.494;5.386;2023-03-21T10:40:17;4.90;;;1.60;;
61709;SDS011;47633;51.494;5.386;2023-03-21T10:42:42;6.20;;;1.58;;
61709;SDS011;47633;51.494;5.386;2023-03-21T10:45:17;4.45;;;1.60;;
61709;SDS011;47633;51.494;5.386;2023-03-21T10:47:46;5.18;;;1.90;;
61709;SDS011;47633;51.494;5.386;2023-03-21T10:50:14;3.95;;;1.70;;
61709;SDS011;47633;51.494;5.386;2023-03-21T10:52:45;5.35;;;1.90;;
61709;SDS011;47633;51.494;5.386;2023-03-21T10:55:19;3.92;;;1.50;;
61709;SDS011;47633;51.494;5.386;2023-03-21T10:57:58;4.05;;;1.67;;
61709;SDS011;47633;51.494;5.386;2023-03-21T11:00:27;3.58;;;1.60;;
61709;SDS011;47633;51.494;5.386;2023-03-21T11:02:57;4.38;;;1.80;;
61709;SDS011;47633;51.494;5.386;2023-03-21T11:05:25;5.22;;;1.70;;
61709;SDS011;47633;51.494;5.386;2023-03-21T11:07:59;5.80;;;1.52;;
61709;SDS011;47633;51.494;5.386;2023-03-21T11:10:29;5.35;;;1.50;;
61709;SDS011;47633;51.494;5.386;2023-03-21T11:13:00;4.05;;;1.48;;
61709;SDS011;47633;51.494;5.386;2023-03-21T11:15:39;5.50;;;1.52;;
61709;SDS011;47633;51.494;5.386;2023-03-21T11:18:21;4.78;;;1.73;;
61709;SDS011;47633;51.494;5.386;2023-03-21T11:20:49;7.40;;;1.60;;
61709;SDS011;47633;51.494;5.386;2023-03-21T11:23:17;5.22;;;1.48;;
61709;SDS011;47633;51.494;5.386;2023-03-21T11:25:43;5.93;;;1.40;;
61709;SDS011;47633;51.494;5.386;2023-03-21T11:28:15;7.95;;;3.35;;
61709;SDS011;47633;51.494;5.386;2023-03-21T11:31:01;5.10;;;1.58;;
61709;SDS011;47633;51.494;5.386;2023-03-21T11:33:30;4.85;;;1.52;;
61709;SDS011;47633;51.494;5.386;2023-03-21T11:36:02;5.07;;;1.95;;
61709;SDS011;47633;51.494;5.386;2023-03-21T11:38:31;5.47;;;1.50;;
61709;SDS011;47633;51.494;5.386;2023-03-21T11:41:00;6.30;;;1.55;;
61709;SDS011;47633;51.494;5.386;2023-03-21T11:43:28;3.97;;;1.45;;
61709;SDS011;47633;51.494;5.386;2023-03-21T11:46:04;6.63;;;1.60;;
61709;SDS011;47633;51.494;5.386;2023-03-21T11:48:37;4.03;;;1.42;;
61709;SDS011;47633;51.494;5.386;2023-03-21T11:54:10;4.20;;;1.30;;
61709;SDS011;47633;51.494;5.386;2023-03-21T12:15:23;5.65;;;1.48;;
61709;SDS011;47633;51.494;5.386;2023-03-21T12:26:27;3.90;;;1.45;;
61709;SDS011;47633;51.494;5.386;2023-03-21T12:34:12;4.35;;;1.50;;
61709;SDS011;47633;51.494;5.386;2023-03-21T12:37:11;5.88;;;1.60;;
61709;SDS011;47633;51.494;5.386;2023-03-21T12:45:16;4.53;;;1.40;;
61709;SDS011;47633;51.494;5.386;2023-03-21T12:47:46;4.10;;;1.58;;
61709;SDS011;47633;51.494;5.386;2023-03-21T12:50:30;5.32;;;1.70;;
61709;SDS011;47633;51.494;5.386;2023-03-21T12:53:17;5.32;;;1.40;;
61709;SDS011;47633;51.494;5.386;2023-03-21T12:55:54;5.13;;;1.58;;
61709;SDS011;47633;51.494;5.386;2023-03-21T12:58:22;4.75;;;1.60;;
61709;SDS011;47633;51.494;5.386;2023-03-21T13:00:52;4.18;;;1.70;;
61709;SDS011;47633;51.494;5.386;2023-03-21T13:05:54;5.18;;;1.58;;
61709;SDS011;47633;51.494;5.386;2023-03-21T13:08:29;3.40;;;1.50;;
61709;SDS011;47633;51.494;5.386;2023-03-21T13:11:01;4.85;;;1.63;;
61709;SDS011;47633;51.494;5.386;2023-03-21T13:13:37;5.82;;;1.50;;
61709;SDS011;47633;51.494;5.386;2023-03-21T13:16:09;4.55;;;1.83;;
61709;SDS011;47633;51.494;5.386;2023-03-21T13:18:51;4.13;;;1.50;;
61709;SDS011;47633;51.494;5.386;2023-03-21T13:21:56;5.45;;;1.77;;
61709;SDS011;47633;51.494;5.386;2023-03-21T13:24:41;3.75;;;1.55;;
61709;SDS011;47633;51.494;5.386;2023-03-21T13:34:52;2.47;;;1.20;;
61709;SDS011;47633;51.494;5.386;2023-03-21T13:37:20;4.32;;;1.50;;
61709;SDS011;47633;51.494;5.386;2023-03-21T13:39:46;5.07;;;1.80;;
61709;SDS011;47633;51.494;5.386;2023-03-21T13:42:20;3.28;;;1.60;;
61709;SDS011;47633;51.494;5.386;2023-03-21T13:44:48;4.22;;;1.70;;
61709;SDS011;47633;51.494;5.386;2023-03-21T13:52:41;3.78;;;1.42;;
61709;SDS011;47633;51.494;5.386;2023-03-21T13:55:13;4.85;;;1.63;;
61709;SDS011;47633;51.494;5.386;2023-03-21T13:57:41;4.55;;;1.60;;
61709;SDS011;47633;51.494;5.386;2023-03-21T14:03:04;3.70;;;1.52;;
61709;SDS011;47633;51.494;5.386;2023-03-21T14:05:32;6.70;;;1.50;;
61709;SDS011;47633;51.494;5.386;2023-03-21T14:08:02;5.07;;;1.48;;
61709;SDS011;47633;51.494;5.386;2023-03-21T14:13:16;4.97;;;2.67;;
61709;SDS011;47633;51.494;5.386;2023-03-21T14:15:48;4.05;;;1.60;;
61709;SDS011;47633;51.494;5.386;2023-03-21T14:18:18;4.10;;;1.40;;
61709;SDS011;47633;51.494;5.386;2023-03-21T14:20:44;3.78;;;1.60;;
61709;SDS011;47633;51.494;5.386;2023-03-21T14:23:13;5.22;;;1.30;;
61709;SDS011;47633;51.494;5.386;2023-03-21T14:25:40;3.63;;;1.30;;
61709;SDS011;47633;51.494;5.386;2023-03-21T14:28:12;3.72;;;1.60;;
61709;SDS011;47633;51.494;5.386;2023-03-21T14:30:41;4.80;;;1.43;;
61709;SDS011;47633;51.494;5.386;2023-03-21T14:33:14;4.95;;;1.65;;
61709;SDS011;47633;51.494;5.386;2023-03-21T14:35:47;4.45;;;1.80;;
61709;SDS011;47633;51.494;5.386;2023-03-21T14:38:20;4.35;;;1.48;;
61709;SDS011;47633;51.494;5.386;2023-03-21T14:41:02;4.57;;;1.60;;
61709;SDS011;47633;51.494;5.386;2023-03-21T14:43:30;4.70;;;1.50;;
61709;SDS011;47633;51.494;5.386;2023-03-21T14:45:58;3.30;;;1.48;;
61709;SDS011;47633;51.494;5.386;2023-03-21T14:48:31;3.60;;;1.60;;
61709;SDS011;47633;51.494;5.386;2023-03-21T14:51:02;3.03;;;1.40;;
61709;SDS011;47633;51.494;5.386;2023-03-21T14:53:37;4.65;;;1.50;;
61709;SDS011;47633;51.494;5.386;2023-03-21T14:56:23;4.63;;;1.80;;
61709;SDS011;47633;51.494;5.386;2023-03-21T14:58:49;3.60;;;1.50;;
61709;SDS011;47633;51.494;5.386;2023-03-21T15:01:28;4.90;;;1.60;;
61709;SDS011;47633;51.494;5.386;2023-03-21T15:03:56;5.63;;;1.60;;
61709;SDS011;47633;51.494;5.386;2023-03-21T15:06:23;4.65;;;1.80;;
61709;SDS011;47633;51.494;5.386;2023-03-21T15:08:59;2.65;;;1.30;;
61709;SDS011;47633;51.494;5.386;2023-03-21T15:13:56;4.20;;;1.50;;
61709;SDS011;47633;51.494;5.386;2023-03-21T15:16:25;3.92;;;1.60;;
61709;SDS011;47633;51.494;5.386;2023-03-21T15:18:51;4.20;;;1.40;;
61709;SDS011;47633;51.494;5.386;2023-03-21T15:21:18;3.63;;;1.40;;
61709;SDS011;47633;51.494;5.386;2023-03-21T15:23:48;4.15;;;1.80;;
61709;SDS011;47633;51.494;5.386;2023-03-21T15:26:18;3.85;;;1.55;;
61709;SDS011;47633;51.494;5.386;2023-03-21T15:28:48;5.43;;;1.40;;
61709;SDS011;47633;51.494;5.386;2023-03-21T15:31:20;3.75;;;1.48;;
61709;SDS011;47633;51.494;5.386;2023-03-21T15:33:48;4.38;;;1.48;;
61709;SDS011;47633;51.494;5.386;2023-03-21T15:36:24;4.40;;;1.50;;
61709;SDS011;47633;51.494;5.386;2023-03-21T15:38:59;6.45;;;1.42;;
61709;SDS011;47633;51.494;5.386;2023-03-21T15:41:29;3.65;;;1.70;;
61709;SDS011;47633;51.494;5.386;2023-03-21T15:44:00;3.30;;;1.20;;
61709;SDS011;47633;51.494;5.386;2023-03-21T15:46:39;4.10;;;1.60;;
61709;SDS011;47633;51.494;5.386;2023-03-21T15:49:15;3.15;;;1.17;;
61709;SDS011;47633;51.494;5.386;2023-03-21T15:51:46;4.47;;;1.27;;
61709;SDS011;47633;51.494;5.386;2023-03-21T15:54:17;4.30;;;1.58;;
61709;SDS011;47633;51.494;5.386;2023-03-21T15:56:53;3.38;;;1.40;;
61709;SDS011;47633;51.494;5.386;2023-03-21T15:59:20;3.17;;;1.30;;
61709;SDS011;47633;51.494;5.386;2023-03-21T16:01:49;3.20;;;1.13;;
61709;SDS011;47633;51.494;5.386;2023-03-21T16:04:15;5.05;;;1.50;;
61709;SDS011;47633;51.494;5.386;2023-03-21T16:06:52;3.42;;;1.40;;
61709;SDS011;47633;51.494;5.386;2023-03-21T16:09:22;3.58;;;1.33;;
61709;SDS011;47633;51.494;5.386;2023-03-21T16:11:49;3.80;;;1.30;;
61709;SDS011;47633;51.494;5.386;2023-03-21T16:14:16;3.55;;;1.30;;
61709;SDS011;47633;51.494;5.386;2023-03-21T16:16:43;3.97;;;1.50;;
61709;SDS011;47633;51.494;5.386;2023-03-21T16:19:10;4.28;;;2.05;;
61709;SDS011;47633;51.494;5.386;2023-03-21T16:21:35;3.92;;;1.20;;
61709;SDS011;47633;51.494;5.386;2023-03-21T16:24:04;2.83;;;1.20;;
61709;SDS011;47633;51.494;5.386;2023-03-21T16:26:31;3.55;;;1.20;;
61709;SDS011;47633;51.494;5.386;2023-03-21T16:28:59;2.35;;;1.30;;
61709;SDS011;47633;51.494;5.386;2023-03-21T16:31:26;2.28;;;1.10;;
61709;SDS011;47633;51.494;5.386;2023-03-21T16:33:53;5.20;;;1.50;;
61709;SDS011;47633;51.494;5.386;2023-03-21T16:36:26;4.13;;;1.45;;
61709;SDS011;47633;51.494;5.386;2023-03-21T16:38:55;2.95;;;1.33;;
61709;SDS011;47633;51.494;5.386;2023-03-21T16:41:22;3.50;;;1.30;;
61709;SDS011;47633;51.494;5.386;2023-03-21T16:43:49;3.05;;;1.25;;
61709;SDS011;47633;51.494;5.386;2023-03-21T16:48:43;4.85;;;1.23;;
61709;SDS011;47633;51.494;5.386;2023-03-21T16:51:14;3.10;;;1.17;;
61709;SDS011;47633;51.494;5.386;2023-03-21T16:53:44;3.65;;;1.20;;